Time;durP1;ratioP1;P1;durP2;ratioP2;P2;SDS_P1;SDS_P2;PMS_P1;PMS_P2;Temp;Humidity;BMP_temperature;BMP_pressure;BME280_temperature;BME280_humidity;BME280_pressure;Samples;Min_cycle;Max_cycle;Signal;HPM_P1;HPM_P2
2022/04/07 00:00:07;;;;;;;9.75;2.83;;;;;;;;;;5049631;28;20485;-70
2022/04/07 00:02:33;;;;;;;6.95;3.10;;;;;;;;;;5060420;28;20128;-70
2022/04/07 00:04:59;;;;;;;7.45;3.13;;;;;;;;;;5079909;28;20587;-70
2022/04/07 00:07:25;;;;;;;6.85;3.05;;;;;;;;;;5063978;28;20052;-70
2022/04/07 00:09:52;;;;;;;7.70;3.00;;;;;;;;;;5062573;28;20095;-70
2022/04/07 00:12:18;;;;;;;8.82;3.30;;;;;;;;;;5047325;28;20040;-70
2022/04/07 00:14:44;;;;;;;6.97;3.13;;;;;;;;;;5059922;28;20046;-70
2022/04/07 00:17:10;;;;;;;8.38;3.20;;;;;;;;;;5060122;28;20071;-70
2022/04/07 00:19:37;;;;;;;8.45;3.50;;;;;;;;;;5062050;28;20568;-70
2022/04/07 00:22:03;;;;;;;8.10;3.60;;;;;;;;;;5060484;28;20064;-70
2022/04/07 00:24:29;;;;;;;7.15;3.33;;;;;;;;;;5063292;28;20503;-69
2022/04/07 00:26:56;;;;;;;9.82;4.10;;;;;;;;;;5061794;28;20517;-70
2022/04/07 00:29:22;;;;;;;7.50;3.40;;;;;;;;;;5061814;28;20385;-70
2022/04/07 00:31:55;;;;;;;4.88;4.03;;;;;;;;;;5063432;28;20041;-70
2022/04/07 00:34:21;;;;;;;10.18;4.03;;;;;;;;;;5063168;28;20059;-70
2022/04/07 00:36:47;;;;;;;7.05;4.00;;;;;;;;;;5063611;28;20040;-70
2022/04/07 00:39:13;;;;;;;8.68;3.92;;;;;;;;;;5062572;28;20382;-70
2022/04/07 00:41:40;;;;;;;8.68;4.05;;;;;;;;;;5065768;28;20045;-70
2022/04/07 00:44:08;;;;;;;9.43;4.40;;;;;;;;;;5084695;28;20044;-70
2022/04/07 00:46:35;;;;;;;11.27;5.00;;;;;;;;;;5063204;28;20439;-70
2022/04/07 00:49:01;;;;;;;7.82;4.90;;;;;;;;;;5064724;28;20044;-69
2022/04/07 00:51:27;;;;;;;12.32;4.80;;;;;;;;;;5064052;28;20129;-70
2022/04/07 00:53:53;;;;;;;9.20;5.03;;;;;;;;;;5062094;28;20044;-70
2022/04/07 00:56:20;;;;;;;8.32;4.70;;;;;;;;;;5064870;28;20048;-70
2022/04/07 00:58:47;;;;;;;10.63;5.53;;;;;;;;;;5062529;28;20373;-70
2022/04/07 01:01:14;;;;;;;11.10;5.47;;;;;;;;;;5067580;28;20037;-70
2022/04/07 01:03:41;;;;;;;10.57;5.40;;;;;;;;;;5065441;28;20045;-70
2022/04/07 01:06:07;;;;;;;11.32;5.40;;;;;;;;;;5064212;28;20167;-70
2022/04/07 01:08:33;;;;;;;7.80;4.70;;;;;;;;;;5083958;28;20036;-71
2022/04/07 01:10:59;;;;;;;9.65;5.10;;;;;;;;;;5062318;28;20473;-71
2022/04/07 01:13:41;;;;;;;10.18;4.60;;;;;;;;;;5063536;28;20131;-70
2022/04/07 01:16:07;;;;;;;11.65;5.13;;;;;;;;;;5060092;28;20506;-70
2022/04/07 01:18:33;;;;;;;13.73;4.97;;;;;;;;;;5060362;28;20425;-70
2022/04/07 01:20:59;;;;;;;12.98;5.05;;;;;;;;;;5058851;28;20060;-70
2022/04/07 01:23:26;;;;;;;6.63;3.53;;;;;;;;;;5062569;28;20515;-70
2022/04/07 01:25:53;;;;;;;7.82;3.85;;;;;;;;;;5061850;28;20047;-70
2022/04/07 01:28:19;;;;;;;6.07;3.10;;;;;;;;;;5064081;28;20143;-70
2022/04/07 01:30:45;;;;;;;11.88;3.85;;;;;;;;;;5060299;28;20040;-70
2022/04/07 01:33:12;;;;;;;10.20;3.35;;;;;;;;;;5047585;28;20044;-71
2022/04/07 01:35:38;;;;;;;10.18;2.80;;;;;;;;;;5081895;28;20083;-70
2022/04/07 01:38:04;;;;;;;8.90;2.50;;;;;;;;;;5064284;28;20087;-70
2022/04/07 01:40:32;;;;;;;10.48;2.88;;;;;;;;;;5058053;28;20232;-71
2022/04/07 01:42:59;;;;;;;9.40;3.40;;;;;;;;;;5062274;28;20053;-70
2022/04/07 01:45:26;;;;;;;9.63;2.80;;;;;;;;;;5060474;28;20032;-70
2022/04/07 01:47:53;;;;;;;5.78;2.63;;;;;;;;;;5059736;28;20044;-71
2022/04/07 01:50:20;;;;;;;7.00;2.88;;;;;;;;;;5053498;28;20037;-71
2022/04/07 01:52:47;;;;;;;8.38;2.63;;;;;;;;;;5058185;28;20048;-71
2022/04/07 01:55:15;;;;;;;9.77;2.70;;;;;;;;;;5078849;28;20456;-71
2022/04/07 01:57:42;;;;;;;10.85;2.95;;;;;;;;;;5042230;28;20051;-71
2022/04/07 02:00:08;;;;;;;10.02;2.72;;;;;;;;;;5059293;28;20044;-71
2022/04/07 02:02:34;;;;;;;10.93;2.97;;;;;;;;;;5061620;28;20040;-70
2022/04/07 02:05:03;;;;;;;14.52;3.22;;;;;;;;;;5059583;28;20060;-71
2022/04/07 02:07:32;;;;;;;12.48;3.60;;;;;;;;;;5059373;28;20052;-71
2022/04/07 02:10:03;;;;;;;9.32;3.03;;;;;;;;;;5059609;28;20044;-71
2022/04/07 02:12:29;;;;;;;12.15;3.38;;;;;;;;;;5061375;28;20036;-71
2022/04/07 02:14:59;;;;;;;13.00;3.72;;;;;;;;;;5060533;28;20089;-71
2022/04/07 02:17:26;;;;;;;15.02;3.58;;;;;;;;;;5058703;28;20489;-71
2022/04/07 02:19:56;;;;;;;14.98;3.70;;;;;;;;;;5060716;28;20041;-71
2022/04/07 02:22:22;;;;;;;13.95;3.00;;;;;;;;;;5062275;28;20044;-71
2022/04/07 02:24:48;;;;;;;11.35;3.22;;;;;;;;;;5083188;28;20483;-71
2022/04/07 02:27:15;;;;;;;15.48;3.30;;;;;;;;;;5061874;28;20032;-71
2022/04/07 02:29:42;;;;;;;12.93;3.20;;;;;;;;;;5082356;28;20055;-71
2022/04/07 02:32:08;;;;;;;12.95;3.00;;;;;;;;;;5078798;28;20527;-71
2022/04/07 02:34:35;;;;;;;12.95;3.63;;;;;;;;;;5059413;28;20039;-71
2022/04/07 02:37:01;;;;;;;13.05;3.17;;;;;;;;;;5078376;28;20049;-71
2022/04/07 02:39:27;;;;;;;11.23;3.38;;;;;;;;;;5082757;28;20040;-71
2022/04/07 02:41:53;;;;;;;11.70;3.53;;;;;;;;;;5040410;28;20536;-71
2022/04/07 02:44:20;;;;;;;12.57;3.47;;;;;;;;;;5060159;28;20778;-70
2022/04/07 02:46:46;;;;;;;9.77;3.10;;;;;;;;;;5060213;28;20041;-71
2022/04/07 02:49:12;;;;;;;14.45;3.25;;;;;;;;;;5079513;28;20053;-71
2022/04/07 02:51:38;;;;;;;13.70;3.08;;;;;;;;;;5058455;28;20041;-71
2022/04/07 02:54:04;;;;;;;12.68;3.30;;;;;;;;;;5059461;28;20068;-71
2022/04/07 02:56:30;;;;;;;14.57;3.38;;;;;;;;;;5060985;28;20056;-71
2022/04/07 02:58:57;;;;;;;9.20;2.45;;;;;;;;;;5058284;28;20131;-70
2022/04/07 03:01:23;;;;;;;14.07;3.13;;;;;;;;;;5078792;28;20045;-71
2022/04/07 03:03:50;;;;;;;11.27;3.05;;;;;;;;;;5060050;28;20040;-71
2022/04/07 03:06:16;;;;;;;15.32;3.30;;;;;;;;;;5058682;28;20111;-71
2022/04/07 03:08:43;;;;;;;16.27;3.05;;;;;;;;;;5043597;28;20396;-69
2022/04/07 03:11:09;;;;;;;12.57;2.85;;;;;;;;;;5060276;28;20053;-66
2022/04/07 03:13:39;;;;;;;11.35;2.13;;;;;;;;;;5063240;28;20064;-66
2022/04/07 03:16:05;;;;;;;12.75;2.80;;;;;;;;;;5043251;28;20043;-66
2022/04/07 03:18:31;;;;;;;11.52;3.33;;;;;;;;;;5063078;28;20127;-66
2022/04/07 03:20:57;;;;;;;14.13;3.75;;;;;;;;;;5061755;28;20032;-67
2022/04/07 03:23:24;;;;;;;10.63;3.50;;;;;;;;;;5063830;28;20071;-69
2022/04/07 03:25:50;;;;;;;13.27;3.53;;;;;;;;;;5061058;28;20514;-71
2022/04/07 03:28:16;;;;;;;11.27;3.20;;;;;;;;;;5044581;28;20423;-71
2022/04/07 03:30:42;;;;;;;11.10;3.83;;;;;;;;;;5058712;28;20102;-71
2022/04/07 03:33:08;;;;;;;17.85;3.92;;;;;;;;;;5061569;28;20075;-72
2022/04/07 03:35:38;;;;;;;9.98;3.78;;;;;;;;;;5043225;28;20040;-72
2022/04/07 03:38:05;;;;;;;12.25;2.97;;;;;;;;;;5061490;28;20048;-72
2022/04/07 03:40:32;;;;;;;8.05;2.47;;;;;;;;;;5056617;28;20081;-72
2022/04/07 03:42:59;;;;;;;10.52;2.95;;;;;;;;;;5079883;28;20056;-72
2022/04/07 03:45:25;;;;;;;10.15;3.13;;;;;;;;;;5060125;28;20036;-72
2022/04/07 03:47:51;;;;;;;14.80;4.50;;;;;;;;;;5061837;28;20782;-71
2022/04/07 03:50:17;;;;;;;15.77;4.75;;;;;;;;;;5058028;28;20040;-71
2022/04/07 03:52:43;;;;;;;22.25;4.68;;;;;;;;;;5048656;28;20036;-71
2022/04/07 03:55:10;;;;;;;19.23;4.57;;;;;;;;;;5047301;28;20390;-71
2022/04/07 03:57:36;;;;;;;15.15;3.58;;;;;;;;;;5060542;28;20051;-71
2022/04/07 04:00:04;;;;;;;19.33;4.55;;;;;;;;;;5059006;28;20083;-71
2022/04/07 04:02:30;;;;;;;21.40;4.97;;;;;;;;;;5060639;28;20044;-71
2022/04/07 04:04:56;;;;;;;18.35;4.43;;;;;;;;;;5062895;28;20032;-71
2022/04/07 04:07:22;;;;;;;23.25;4.88;;;;;;;;;;5061820;28;20037;-71
2022/04/07 04:09:48;;;;;;;20.10;4.95;;;;;;;;;;5063479;28;20036;-71
2022/04/07 04:12:14;;;;;;;23.30;3.95;;;;;;;;;;5062072;28;20045;-71
2022/04/07 04:14:40;;;;;;;18.63;3.78;;;;;;;;;;5062739;28;20040;-71
2022/04/07 04:17:06;;;;;;;14.82;4.22;;;;;;;;;;5060717;28;20044;-72
2022/04/07 04:19:33;;;;;;;20.20;4.03;;;;;;;;;;5056776;28;20041;-72
2022/04/07 04:21:59;;;;;;;25.77;4.68;;;;;;;;;;5059918;28;20433;-72
2022/04/07 04:24:25;;;;;;;21.55;4.13;;;;;;;;;;5061529;28;20041;-71
2022/04/07 04:26:51;;;;;;;17.52;4.00;;;;;;;;;;5044092;28;20059;-71
2022/04/07 04:29:18;;;;;;;27.60;4.53;;;;;;;;;;5058868;28;20485;-71
2022/04/07 04:31:44;;;;;;;22.75;4.50;;;;;;;;;;5058749;28;20044;-71
2022/04/07 04:34:10;;;;;;;20.55;3.50;;;;;;;;;;5059602;28;20202;-72
2022/04/07 04:36:36;;;;;;;18.48;3.97;;;;;;;;;;5057727;28;20056;-72
2022/04/07 04:39:02;;;;;;;25.90;4.65;;;;;;;;;;5040109;28;20048;-72
2022/04/07 04:41:28;;;;;;;16.67;4.22;;;;;;;;;;5043521;28;20039;-72
2022/04/07 04:43:54;;;;;;;18.70;4.05;;;;;;;;;;5045501;28;20052;-71
2022/04/07 04:46:21;;;;;;;23.85;4.53;;;;;;;;;;5059485;28;20106;-72
2022/04/07 04:48:47;;;;;;;23.33;4.68;;;;;;;;;;5080751;28;20523;-71
2022/04/07 04:51:13;;;;;;;22.70;3.90;;;;;;;;;;5059718;28;20481;-71
2022/04/07 04:53:39;;;;;;;19.70;4.88;;;;;;;;;;5060617;28;20721;-70
2022/04/07 04:56:06;;;;;;;18.23;4.78;;;;;;;;;;5048199;28;20389;-68
2022/04/07 04:58:32;;;;;;;26.08;4.97;;;;;;;;;;5061246;28;20051;-65
2022/04/07 05:00:58;;;;;;;24.00;4.57;;;;;;;;;;5060345;28;20075;-65
2022/04/07 05:03:24;;;;;;;19.42;4.85;;;;;;;;;;5060333;28;20037;-65
2022/04/07 05:05:50;;;;;;;20.45;5.00;;;;;;;;;;5061464;28;20071;-65
2022/04/07 05:08:16;;;;;;;14.18;4.68;;;;;;;;;;5038823;28;20126;-65
2022/04/07 05:10:42;;;;;;;12.30;4.57;;;;;;;;;;5063886;28;20132;-66
2022/04/07 05:13:08;;;;;;;18.42;4.55;;;;;;;;;;5062372;28;20106;-65
2022/04/07 05:15:36;;;;;;;14.00;4.82;;;;;;;;;;5066052;28;20040;-65
2022/04/07 05:18:02;;;;;;;18.83;4.28;;;;;;;;;;5064455;28;20044;-65
2022/04/07 05:20:28;;;;;;;18.23;4.20;;;;;;;;;;5064512;28;20465;-65
2022/04/07 05:22:54;;;;;;;13.93;4.63;;;;;;;;;;5063796;28;20444;-65
2022/04/07 05:25:20;;;;;;;17.35;5.15;;;;;;;;;;5064206;28;20374;-65
2022/04/07 05:27:46;;;;;;;16.98;5.28;;;;;;;;;;5061532;28;20040;-66
2022/04/07 05:30:13;;;;;;;13.20;5.03;;;;;;;;;;5067408;28;20074;-65
2022/04/07 05:32:43;;;;;;;15.65;4.43;;;;;;;;;;5058221;28;20033;-66
2022/04/07 05:35:09;;;;;;;18.67;5.03;;;;;;;;;;5065294;28;20032;-66
2022/04/07 05:37:35;;;;;;;17.05;5.00;;;;;;;;;;5063555;28;20480;-66
2022/04/07 05:40:02;;;;;;;4.30;1.38;;;;;;;;;;5055446;28;20057;-68
2022/04/07 05:42:28;;;;;;;5.70;1.23;;;;;;;;;;5040810;28;20136;-65
2022/04/07 05:44:54;;;;;;;3.80;0.85;;;;;;;;;;5064488;28;20032;-66
2022/04/07 05:47:20;;;;;;;2.25;0.85;;;;;;;;;;5047398;28;20084;-69
2022/04/07 05:49:46;;;;;;;2.58;0.82;;;;;;;;;;5047390;28;20033;-67
2022/04/07 05:52:12;;;;;;;6.43;1.30;;;;;;;;;;5063494;28;20056;-68
2022/04/07 05:54:38;;;;;;;4.45;0.82;;;;;;;;;;5064164;28;20618;-67
2022/04/07 05:57:04;;;;;;;7.57;1.40;;;;;;;;;;5064165;28;20028;-67
2022/04/07 05:59:30;;;;;;;3.35;1.00;;;;;;;;;;5066096;28;20037;-65
2022/04/07 06:01:56;;;;;;;2.95;0.70;;;;;;;;;;5064079;28;20185;-65
2022/04/07 06:04:22;;;;;;;3.03;0.95;;;;;;;;;;5044872;28;21093;-65
2022/04/07 06:06:48;;;;;;;5.03;1.23;;;;;;;;;;5060815;28;20036;-66
2022/04/07 06:09:14;;;;;;;6.53;1.40;;;;;;;;;;5063077;28;20044;-65
2022/04/07 06:11:41;;;;;;;3.80;1.20;;;;;;;;;;5057672;28;20044;-66
2022/04/07 06:14:07;;;;;;;4.78;1.02;;;;;;;;;;5061228;28;20044;-68
2022/04/07 06:16:33;;;;;;;3.17;0.85;;;;;;;;;;5064281;28;20053;-67
2022/04/07 06:18:59;;;;;;;4.05;0.90;;;;;;;;;;5063896;28;20047;-66
2022/04/07 06:21:29;;;;;;;3.13;0.80;;;;;;;;;;5056945;28;20044;-65
2022/04/07 06:23:55;;;;;;;7.63;1.25;;;;;;;;;;5063579;28;20113;-65
2022/04/07 06:26:21;;;;;;;4.30;1.20;;;;;;;;;;5058214;28;20040;-66
2022/04/07 06:28:47;;;;;;;4.45;1.33;;;;;;;;;;5061849;28;20124;-69
2022/04/07 06:31:13;;;;;;;5.88;1.40;;;;;;;;;;5062440;28;20139;-68
2022/04/07 06:33:39;;;;;;;4.63;1.60;;;;;;;;;;5059856;28;20048;-69
2022/04/07 06:36:06;;;;;;;6.25;1.25;;;;;;;;;;5061072;28;20036;-69
2022/04/07 06:38:33;;;;;;;7.32;1.10;;;;;;;;;;5059873;28;20083;-68
2022/04/07 06:40:59;;;;;;;2.47;0.70;;;;;;;;;;5040038;28;20508;-68
2022/04/07 06:43:25;;;;;;;4.28;1.10;;;;;;;;;;5057643;28;20033;-67
2022/04/07 06:45:51;;;;;;;3.53;0.70;;;;;;;;;;5059705;28;20128;-66
2022/04/07 06:48:17;;;;;;;3.40;0.70;;;;;;;;;;5063301;28;20098;-64
2022/04/07 06:50:44;;;;;;;4.13;0.82;;;;;;;;;;5062582;28;20090;-65
2022/04/07 06:53:13;;;;;;;3.83;0.63;;;;;;;;;;5060989;28;20063;-65
2022/04/07 06:55:39;;;;;;;4.07;0.82;;;;;;;;;;5062812;28;20382;-65
2022/04/07 06:58:08;;;;;;;2.65;1.05;;;;;;;;;;5059356;28;20127;-66
2022/04/07 07:00:36;;;;;;;4.65;1.00;;;;;;;;;;5062349;28;20079;-65
2022/04/07 07:03:03;;;;;;;3.95;1.23;;;;;;;;;;5060170;28;20041;-66
2022/04/07 07:05:30;;;;;;;5.93;1.50;;;;;;;;;;5061331;28;20469;-65
2022/04/07 07:07:56;;;;;;;5.85;1.15;;;;;;;;;;5079543;28;20037;-66
2022/04/07 07:10:30;;;;;;;4.20;1.20;;;;;;;;;;5060839;28;20048;-66
2022/04/07 07:12:59;;;;;;;5.35;1.02;;;;;;;;;;5062772;28;20423;-66
2022/04/07 07:15:25;;;;;;;3.03;0.95;;;;;;;;;;5061431;28;20075;-67
2022/04/07 07:17:51;;;;;;;3.60;1.10;;;;;;;;;;5057925;28;20048;-67
2022/04/07 07:20:20;;;;;;;5.15;1.15;;;;;;;;;;5051667;28;20051;-66
2022/04/07 07:22:46;;;;;;;4.43;1.13;;;;;;;;;;5082163;28;20055;-66
2022/04/07 07:25:13;;;;;;;2.88;1.10;;;;;;;;;;5064403;28;20094;-68
2022/04/07 07:27:46;;;;;;;7.32;1.00;;;;;;;;;;5065432;28;20477;-68
2022/04/07 07:30:15;;;;;;;5.13;1.02;;;;;;;;;;5082982;28;20499;-69
2022/04/07 07:32:41;;;;;;;3.85;0.82;;;;;;;;;;5065343;28;20036;-69
2022/04/07 07:35:08;;;;;;;4.97;1.08;;;;;;;;;;5061853;28;20060;-69
2022/04/07 07:37:34;;;;;;;4.00;1.20;;;;;;;;;;5060645;28;20043;-69
2022/04/07 07:40:07;;;;;;;5.63;1.20;;;;;;;;;;5063941;28;20041;-69
2022/04/07 07:42:36;;;;;;;2.85;1.02;;;;;;;;;;5063288;28;20370;-69
2022/04/07 07:45:02;;;;;;;3.95;1.05;;;;;;;;;;5066759;28;20136;-69
2022/04/07 07:47:28;;;;;;;5.57;0.80;;;;;;;;;;5064338;28;20097;-69
2022/04/07 07:49:54;;;;;;;6.53;1.10;;;;;;;;;;5063866;28;20128;-69
2022/04/07 07:52:20;;;;;;;3.28;0.65;;;;;;;;;;5049012;28;20059;-69
2022/04/07 07:54:46;;;;;;;4.97;1.00;;;;;;;;;;5065223;28;20047;-70
2022/04/07 07:57:12;;;;;;;3.45;0.90;;;;;;;;;;5050496;28;20136;-70
2022/04/07 07:59:38;;;;;;;4.90;1.00;;;;;;;;;;5065247;28;20163;-70
2022/04/07 08:02:04;;;;;;;6.30;1.08;;;;;;;;;;5061313;28;20139;-70
2022/04/07 08:04:30;;;;;;;3.55;0.93;;;;;;;;;;5067218;28;20052;-70
2022/04/07 08:06:57;;;;;;;3.95;0.90;;;;;;;;;;5065492;28;20060;-71
2022/04/07 08:09:23;;;;;;;2.60;0.90;;;;;;;;;;5061660;28;20385;-71
2022/04/07 08:11:49;;;;;;;4.32;1.05;;;;;;;;;;5061433;28;20084;-73
2022/04/07 08:14:15;;;;;;;3.33;0.90;;;;;;;;;;5061300;28;20036;-71
2022/04/07 08:16:41;;;;;;;3.22;1.10;;;;;;;;;;5064402;28;20067;-71
2022/04/07 08:19:09;;;;;;;6.68;1.08;;;;;;;;;;5064606;28;20520;-70
2022/04/07 08:21:35;;;;;;;4.55;1.02;;;;;;;;;;5062203;28;20505;-70
2022/04/07 08:24:02;;;;;;;5.20;0.90;;;;;;;;;;5058875;28;20043;-70
2022/04/07 08:26:28;;;;;;;2.22;0.90;;;;;;;;;;5062113;28;20048;-70
2022/04/07 08:28:54;;;;;;;2.38;0.80;;;;;;;;;;5063677;28;20495;-70
2022/04/07 08:31:20;;;;;;;4.72;1.02;;;;;;;;;;5064682;28;20080;-70
2022/04/07 08:33:46;;;;;;;2.90;1.02;;;;;;;;;;5061569;28;20036;-70
2022/04/07 08:36:12;;;;;;;5.55;1.02;;;;;;;;;;5063564;28;20072;-70
2022/04/07 08:38:39;;;;;;;3.97;1.00;;;;;;;;;;5061230;28;20068;-70
2022/04/07 08:41:09;;;;;;;3.38;1.05;;;;;;;;;;5061769;28;20045;-70
2022/04/07 08:43:38;;;;;;;5.57;1.40;;;;;;;;;;5061081;28;20102;-70
2022/04/07 08:46:06;;;;;;;3.10;0.73;;;;;;;;;;5083345;28;20065;-70
2022/04/07 08:48:33;;;;;;;2.80;1.00;;;;;;;;;;5060250;28;20048;-70
2022/04/07 08:51:00;;;;;;;8.63;1.40;;;;;;;;;;5061596;28;20055;-70
2022/04/07 08:53:26;;;;;;;5.78;1.00;;;;;;;;;;5060707;28;20053;-70
2022/04/07 08:55:52;;;;;;;4.22;0.88;;;;;;;;;;5063124;28;20457;-70
2022/04/07 08:58:18;;;;;;;2.20;0.90;;;;;;;;;;5057637;28;20046;-70
2022/04/07 09:00:45;;;;;;;3.17;0.90;;;;;;;;;;5064096;28;20040;-70
2022/04/07 09:03:11;;;;;;;7.22;1.27;;;;;;;;;;5059521;28;20515;-70
2022/04/07 09:05:51;;;;;;;4.75;1.00;;;;;;;;;;5065358;28;20213;-70
2022/04/07 09:08:18;;;;;;;5.72;1.13;;;;;;;;;;5060424;28;20052;-70
2022/04/07 09:10:52;;;;;;;6.82;1.27;;;;;;;;;;5063582;28;20435;-70
2022/04/07 09:13:18;;;;;;;4.80;1.67;;;;;;;;;;5063281;28;20076;-69
2022/04/07 09:15:45;;;;;;;3.75;0.93;;;;;;;;;;5046380;28;20041;-70
2022/04/07 09:18:11;;;;;;;4.43;1.70;;;;;;;;;;5056806;28;20423;-69
2022/04/07 09:20:43;;;;;;;4.35;1.20;;;;;;;;;;5060182;28;20045;-70
2022/04/07 09:23:12;;;;;;;9.90;1.85;;;;;;;;;;5058485;28;20040;-70
2022/04/07 09:25:44;;;;;;;6.05;1.50;;;;;;;;;;5055686;28;20048;-70
2022/04/07 09:28:11;;;;;;;4.35;1.30;;;;;;;;;;5057599;28;20128;-70
2022/04/07 09:30:38;;;;;;;8.35;1.45;;;;;;;;;;5062533;28;20052;-70
2022/04/07 09:33:04;;;;;;;9.02;1.58;;;;;;;;;;5062968;28;20075;-69
2022/04/07 09:35:30;;;;;;;4.55;1.67;;;;;;;;;;5064152;28;20048;-69
2022/04/07 09:38:01;;;;;;;8.75;1.70;;;;;;;;;;5045624;28;20044;-69
2022/04/07 09:40:28;;;;;;;7.40;1.50;;;;;;;;;;5060210;28;20045;-70
2022/04/07 09:42:58;;;;;;;10.98;1.73;;;;;;;;;;5063242;28;20110;-70
2022/04/07 09:45:24;;;;;;;10.45;1.60;;;;;;;;;;5061399;28;20135;-70
2022/04/07 09:47:51;;;;;;;8.13;2.35;;;;;;;;;;5062419;28;20127;-70
2022/04/07 09:50:22;;;;;;;8.95;1.75;;;;;;;;;;5044818;28;20044;-70
2022/04/07 09:53:06;;;;;;;10.63;2.00;;;;;;;;;;5061933;28;20045;-70
2022/04/07 09:55:36;;;;;;;10.27;1.60;;;;;;;;;;5060527;28;20044;-70
2022/04/07 09:58:09;;;;;;;5.50;1.25;;;;;;;;;;5055877;28;20102;-70
2022/04/07 10:00:35;;;;;;;10.55;1.95;;;;;;;;;;5042408;28;20048;-70
2022/04/07 10:03:02;;;;;;;10.00;2.35;;;;;;;;;;5059821;28;20098;-70
2022/04/07 10:05:29;;;;;;;10.27;2.05;;;;;;;;;;5061790;28;20079;-70
2022/04/07 10:07:57;;;;;;;9.82;1.88;;;;;;;;;;5083430;28;20047;-70
2022/04/07 10:10:23;;;;;;;9.57;2.00;;;;;;;;;;5059329;28;20049;-70
2022/04/07 10:12:50;;;;;;;10.05;2.13;;;;;;;;;;5062507;28;20094;-70
2022/04/07 10:15:17;;;;;;;10.80;2.50;;;;;;;;;;5061761;28;20067;-70
2022/04/07 10:17:43;;;;;;;9.77;2.03;;;;;;;;;;5064451;28;20048;-70
2022/04/07 10:20:10;;;;;;;8.65;2.35;;;;;;;;;;5062188;28;20169;-70
2022/04/07 10:22:39;;;;;;;13.63;2.72;;;;;;;;;;5063824;28;20041;-70
2022/04/07 10:25:06;;;;;;;12.90;2.47;;;;;;;;;;5063153;28;20043;-69
2022/04/07 10:27:34;;;;;;;9.48;2.53;;;;;;;;;;5058546;28;20109;-69
2022/04/07 10:30:05;;;;;;;13.63;2.78;;;;;;;;;;5062740;28;20393;-69
2022/04/07 10:32:41;;;;;;;8.70;2.45;;;;;;;;;;5062154;28;20055;-70
2022/04/07 10:35:08;;;;;;;15.85;3.38;;;;;;;;;;5063217;28;20095;-70
2022/04/07 10:37:42;;;;;;;16.23;2.40;;;;;;;;;;5061327;28;20113;-70
2022/04/07 10:40:27;;;;;;;12.05;2.22;;;;;;;;;;5080329;28;20141;-70
2022/04/07 10:43:18;;;;;;;12.13;2.47;;;;;;;;;;5060836;28;20052;-69
2022/04/07 10:45:48;;;;;;;13.13;2.78;;;;;;;;;;5061421;28;20457;-70
2022/04/07 10:48:18;;;;;;;13.73;2.45;;;;;;;;;;5060691;28;20064;-70
2022/04/07 10:50:48;;;;;;;16.35;2.55;;;;;;;;;;5060816;28;20049;-69
2022/04/07 10:53:24;;;;;;;11.52;2.47;;;;;;;;;;5061764;28;20084;-69
2022/04/07 10:56:03;;;;;;;15.20;2.65;;;;;;;;;;5061425;28;20044;-70
2022/04/07 10:58:41;;;;;;;10.43;2.40;;;;;;;;;;5061290;28;20051;-70
2022/04/07 11:01:07;;;;;;;16.02;2.88;;;;;;;;;;5063069;28;20055;-69
2022/04/07 11:03:35;;;;;;;11.70;2.35;;;;;;;;;;5064836;28;20405;-69
2022/04/07 11:06:03;;;;;;;11.23;2.45;;;;;;;;;;5063518;28;20052;-70
2022/04/07 11:08:30;;;;;;;11.55;2.33;;;;;;;;;;5060686;28;20054;-69
2022/04/07 11:10:56;;;;;;;10.57;2.08;;;;;;;;;;5067845;28;20040;-69
2022/04/07 11:13:42;;;;;;;16.13;2.72;;;;;;;;;;5063865;28;20048;-69
2022/04/07 11:16:36;;;;;;;10.68;2.75;;;;;;;;;;5086961;28;20039;-70
2022/04/07 11:19:08;;;;;;;10.30;2.45;;;;;;;;;;5083315;28;20052;-69
2022/04/07 11:21:49;;;;;;;14.55;2.60;;;;;;;;;;5065611;28;20047;-69
2022/04/07 11:24:22;;;;;;;11.27;2.25;;;;;;;;;;5066323;28;20488;-69
2022/04/07 11:26:48;;;;;;;15.75;2.95;;;;;;;;;;5067443;28;20086;-69
2022/04/07 11:29:14;;;;;;;12.00;2.20;;;;;;;;;;5064574;28;20558;-69
2022/04/07 11:31:41;;;;;;;15.85;2.63;;;;;;;;;;5048473;28;20048;-69
2022/04/07 11:34:26;;;;;;;13.32;2.70;;;;;;;;;;5065819;28;20055;-69
2022/04/07 11:36:52;;;;;;;10.18;2.42;;;;;;;;;;5067882;28;20123;-69
2022/04/07 11:39:19;;;;;;;11.15;3.05;;;;;;;;;;5062627;28;20056;-69
2022/04/07 11:41:45;;;;;;;19.85;3.20;;;;;;;;;;5082775;28;20074;-69
2022/04/07 11:44:12;;;;;;;10.30;2.13;;;;;;;;;;5059309;28;20071;-69
2022/04/07 11:46:40;;;;;;;15.93;2.50;;;;;;;;;;5053658;28;20037;-69
2022/04/07 11:49:07;;;;;;;10.98;2.13;;;;;;;;;;5055756;28;20052;-69
2022/04/07 11:51:35;;;;;;;10.68;2.53;;;;;;;;;;5059637;28;20102;-69
2022/04/07 11:54:02;;;;;;;15.70;3.10;;;;;;;;;;5063752;28;20533;-69
2022/04/07 11:56:31;;;;;;;13.27;2.90;;;;;;;;;;5043243;28;20879;-69
2022/04/07 11:58:58;;;;;;;11.43;2.40;;;;;;;;;;5029784;28;20044;-69
2022/04/07 12:01:24;;;;;;;10.88;2.55;;;;;;;;;;5061639;28;20038;-69
2022/04/07 12:03:52;;;;;;;9.27;2.30;;;;;;;;;;5062253;28;20128;-69
2022/04/07 12:06:21;;;;;;;11.25;2.72;;;;;;;;;;5059773;28;20523;-69
2022/04/07 12:08:47;;;;;;;10.85;2.38;;;;;;;;;;5061782;28;20052;-69
2022/04/07 12:11:13;;;;;;;12.38;2.40;;;;;;;;;;5080880;28;20079;-69
2022/04/07 12:13:40;;;;;;;13.23;2.42;;;;;;;;;;5058631;28;20041;-69
2022/04/07 12:16:08;;;;;;;14.18;3.38;;;;;;;;;;5061783;28;20425;-69
2022/04/07 12:18:35;;;;;;;10.25;2.63;;;;;;;;;;5041313;28;20040;-69
2022/04/07 12:21:01;;;;;;;13.55;2.45;;;;;;;;;;5055416;28;20056;-69
2022/04/07 12:23:28;;;;;;;10.07;2.25;;;;;;;;;;5059332;28;20052;-69
2022/04/07 12:26:01;;;;;;;8.68;2.33;;;;;;;;;;5061119;28;20049;-69
2022/04/07 12:28:39;;;;;;;10.35;1.90;;;;;;;;;;5044070;28;20048;-69
2022/04/07 12:31:12;;;;;;;9.60;2.40;;;;;;;;;;5058325;28;20389;-69
2022/04/07 12:33:45;;;;;;;8.02;2.08;;;;;;;;;;5062233;28;20055;-69
2022/04/07 12:36:12;;;;;;;6.57;1.98;;;;;;;;;;5045669;28;20140;-69
2022/04/07 12:38:39;;;;;;;11.70;2.00;;;;;;;;;;5058684;28;20040;-69
2022/04/07 12:41:16;;;;;;;10.70;2.38;;;;;;;;;;5044415;28;20079;-70
2022/04/07 12:43:51;;;;;;;17.17;4.70;;;;;;;;;;5058524;28;20055;-70
2022/04/07 12:46:21;;;;;;;9.70;2.22;;;;;;;;;;5065069;28;20402;-70
2022/04/07 12:49:00;;;;;;;12.93;2.72;;;;;;;;;;5060919;28;21421;-70
2022/04/07 12:51:26;;;;;;;9.20;2.60;;;;;;;;;;5056988;28;20405;-70
2022/04/07 12:54:04;;;;;;;11.60;2.25;;;;;;;;;;5065219;28;20037;-70
2022/04/07 12:56:30;;;;;;;11.32;2.17;;;;;;;;;;5063057;28;20048;-70
2022/04/07 12:59:04;;;;;;;7.78;2.25;;;;;;;;;;5061245;28;20396;-70
2022/04/07 13:01:31;;;;;;;10.88;2.25;;;;;;;;;;5063287;28;20044;-70
2022/04/07 13:03:57;;;;;;;11.23;2.35;;;;;;;;;;5062665;28;20040;-70
2022/04/07 13:06:24;;;;;;;8.05;1.60;;;;;;;;;;5065883;28;20036;-70
2022/04/07 13:08:50;;;;;;;9.90;1.75;;;;;;;;;;5064386;28;20044;-70
2022/04/07 13:11:35;;;;;;;9.35;1.90;;;;;;;;;;5061579;28;20044;-70
2022/04/07 13:14:02;;;;;;;13.40;2.28;;;;;;;;;;5059467;28;20118;-70
2022/04/07 13:16:29;;;;;;;12.00;2.53;;;;;;;;;;5063565;28;20437;-70
2022/04/07 13:18:55;;;;;;;9.30;2.47;;;;;;;;;;5059338;28;20174;-70
2022/04/07 13:21:21;;;;;;;9.15;2.50;;;;;;;;;;5059158;28;20057;-70
2022/04/07 13:23:47;;;;;;;9.63;1.40;;;;;;;;;;5058901;28;20059;-70
2022/04/07 13:26:13;;;;;;;7.30;2.28;;;;;;;;;;5058728;28;20059;-69
2022/04/07 13:28:39;;;;;;;10.85;1.63;;;;;;;;;;5058380;28;20378;-70
2022/04/07 13:31:06;;;;;;;7.88;1.35;;;;;;;;;;5058044;28;20481;-70
2022/04/07 13:33:32;;;;;;;7.60;1.50;;;;;;;;;;5059658;28;20049;-70
2022/04/07 13:35:58;;;;;;;6.18;1.42;;;;;;;;;;5060551;28;20167;-70
2022/04/07 13:38:24;;;;;;;11.13;1.75;;;;;;;;;;5059004;28;20040;-70
2022/04/07 13:40:50;;;;;;;9.98;2.00;;;;;;;;;;5062464;28;20059;-70
2022/04/07 13:43:18;;;;;;;11.23;2.25;;;;;;;;;;5063498;28;20036;-70
2022/04/07 13:45:45;;;;;;;9.13;2.08;;;;;;;;;;5057399;28;20559;-70
2022/04/07 13:48:14;;;;;;;10.77;2.20;;;;;;;;;;5061699;28;20127;-70
2022/04/07 13:50:41;;;;;;;17.25;2.70;;;;;;;;;;5059409;28;20056;-71
2022/04/07 13:53:08;;;;;;;9.73;2.10;;;;;;;;;;5058774;28;20127;-70
2022/04/07 13:55:34;;;;;;;9.70;2.28;;;;;;;;;;5057732;28;20452;-70
2022/04/07 13:58:01;;;;;;;12.63;2.25;;;;;;;;;;5043184;28;20051;-70
2022/04/07 14:00:27;;;;;;;9.60;2.10;;;;;;;;;;5059570;28;20074;-70
2022/04/07 14:02:53;;;;;;;10.18;2.10;;;;;;;;;;5058069;28;20107;-70
2022/04/07 14:05:19;;;;;;;12.63;2.70;;;;;;;;;;5058881;28;20044;-69
2022/04/07 14:07:45;;;;;;;11.70;2.20;;;;;;;;;;5058938;28;20037;-70
2022/04/07 14:10:13;;;;;;;13.75;2.50;;;;;;;;;;5054446;28;20045;-70
2022/04/07 14:12:39;;;;;;;8.60;1.70;;;;;;;;;;5038220;28;20037;-70
2022/04/07 14:15:06;;;;;;;5.07;1.45;;;;;;;;;;5054207;28;20571;-70
2022/04/07 14:17:32;;;;;;;10.38;2.70;;;;;;;;;;5037997;28;20071;-70
2022/04/07 14:19:58;;;;;;;8.30;2.10;;;;;;;;;;5038844;28;20049;-70
2022/04/07 14:22:24;;;;;;;9.65;1.88;;;;;;;;;;5056619;28;20043;-70
2022/04/07 14:24:50;;;;;;;11.65;3.05;;;;;;;;;;5052777;28;21077;-70
2022/04/07 14:27:16;;;;;;;13.80;2.88;;;;;;;;;;5053970;28;20666;-70
2022/04/07 14:29:42;;;;;;;11.13;2.25;;;;;;;;;;5053420;28;20037;-70
2022/04/07 14:32:09;;;;;;;12.48;2.33;;;;;;;;;;5054404;28;20485;-70
2022/04/07 14:34:35;;;;;;;9.35;2.25;;;;;;;;;;5054590;28;20393;-70
2022/04/07 14:37:01;;;;;;;10.85;2.28;;;;;;;;;;5055587;28;20401;-70